createdAt,value
2023-03-29T00:01:11.858Z,2.67
2023-03-29T00:04:02.640Z,2.30
2023-03-29T00:06:33.702Z,2.05
2023-03-29T00:09:05.008Z,2.28
2023-03-29T00:11:33.770Z,2.35
2023-03-29T00:14:01.730Z,2.33
2023-03-29T00:16:29.978Z,1.90
2023-03-29T00:18:58.370Z,2.17
2023-03-29T00:21:26.625Z,2.47
2023-03-29T00:23:54.407Z,2.80
2023-03-29T00:26:22.760Z,2.38
2023-03-29T00:28:50.554Z,2.33
2023-03-29T00:31:19.509Z,2.00
2023-03-29T00:33:47.926Z,3.08
2023-03-29T00:36:16.585Z,2.65
2023-03-29T00:38:44.429Z,2.90
2023-03-29T00:41:13.253Z,2.92
2023-03-29T00:43:53.329Z,3.03
2023-03-29T00:46:22.143Z,3.33
2023-03-29T00:48:53.007Z,3.72
2023-03-29T00:51:27.264Z,2.70
2023-03-29T00:54:00.137Z,3.08
2023-03-29T00:56:40.283Z,3.63
2023-03-29T00:59:16.504Z,3.65
2023-03-29T01:01:58.051Z,2.85
2023-03-29T01:04:58.352Z,3.03
2023-03-29T01:07:35.761Z,2.40
2023-03-29T01:10:37.446Z,3.23
2023-03-29T01:13:11.283Z,2.90
2023-03-29T01:15:42.684Z,2.20
2023-03-29T01:18:11.468Z,2.67
2023-03-29T01:21:07.060Z,2.35
2023-03-29T01:24:07.760Z,2.00
2023-03-29T01:26:57.819Z,2.35
2023-03-29T01:29:46.669Z,2.25
2023-03-29T01:32:14.567Z,1.80
2023-03-29T01:35:17.723Z,1.75
2023-03-29T01:37:59.958Z,2.20
2023-03-29T01:40:28.728Z,2.45
2023-03-29T01:43:15.468Z,2.40
2023-03-29T01:45:48.412Z,2.42
2023-03-29T01:48:28.626Z,1.90
2023-03-29T01:55:26.763Z,2.35
2023-03-29T01:57:58.180Z,2.40
2023-03-29T02:00:29.911Z,3.00
2023-03-29T02:03:05.422Z,2.60
2023-03-29T02:05:36.131Z,3.20
2023-03-29T02:08:06.354Z,6.00
2023-03-29T02:10:35.481Z,5.38
2023-03-29T02:13:05.848Z,3.58
2023-03-29T02:15:34.693Z,3.35
2023-03-29T02:18:04.354Z,5.28
2023-03-29T02:20:34.352Z,3.58
2023-03-29T02:23:14.107Z,2.60
2023-03-29T02:25:44.114Z,2.40
2023-03-29T02:28:13.310Z,3.38
2023-03-29T02:31:01.706Z,4.10
2023-03-29T02:33:53.431Z,5.03
2023-03-29T02:36:28.744Z,4.05
2023-03-29T02:39:02.371Z,3.35
2023-03-29T02:41:31.454Z,2.80
2023-03-29T02:44:02.821Z,2.58
2023-03-29T02:46:31.613Z,2.97
2023-03-29T02:49:00.379Z,2.30
2023-03-29T02:51:34.616Z,2.10
2023-03-29T02:54:19.948Z,2.78
2023-03-29T02:56:56.629Z,2.22
2023-03-29T02:59:24.782Z,2.78
2023-03-29T03:01:53.964Z,2.55
2023-03-29T03:04:22.734Z,2.38
2023-03-29T03:06:51.108Z,2.90
2023-03-29T03:09:19.533Z,2.65
2023-03-29T03:11:48.845Z,2.85
2023-03-29T03:14:17.254Z,3.05
2023-03-29T03:16:45.468Z,3.55
2023-03-29T03:19:13.687Z,22.67
2023-03-29T03:21:42.027Z,13.75
2023-03-29T03:24:09.942Z,9.30
2023-03-29T03:26:39.420Z,6.00
2023-03-29T03:29:11.985Z,7.60
2023-03-29T03:31:58.965Z,5.55
2023-03-29T03:34:56.522Z,20.70
2023-03-29T03:37:28.156Z,19.10
2023-03-29T03:39:57.057Z,23.98
2023-03-29T03:42:31.383Z,8.45
2023-03-29T03:44:59.892Z,6.10
2023-03-29T03:47:52.779Z,8.25
2023-03-29T03:50:54.085Z,9.38
2023-03-29T03:53:24.107Z,9.20
2023-03-29T03:56:10.847Z,9.68
2023-03-29T03:59:12.473Z,7.50
2023-03-29T04:01:53.205Z,8.75
2023-03-29T04:04:24.630Z,12.43
2023-03-29T04:07:06.012Z,21.35
2023-03-29T04:09:40.961Z,17.05
2023-03-29T04:12:26.238Z,13.20
2023-03-29T04:14:54.654Z,11.90
2023-03-29T04:17:23.902Z,8.00
2023-03-29T04:20:12.989Z,12.23
2023-03-29T04:22:42.242Z,17.25
2023-03-29T04:25:12.059Z,12.93
2023-03-29T04:27:51.654Z,13.10
2023-03-29T04:30:37.062Z,12.90
2023-03-29T04:33:14.842Z,12.85
2023-03-29T04:35:47.403Z,11.00
2023-03-29T04:38:17.379Z,10.73
2023-03-29T04:40:48.902Z,7.43
2023-03-29T04:43:27.148Z,7.03
2023-03-29T04:46:03.932Z,8.93
2023-03-29T04:49:01.206Z,7.22
2023-03-29T04:51:36.853Z,8.85
2023-03-29T04:54:05.902Z,7.10
2023-03-29T04:56:48.313Z,7.50
2023-03-29T04:59:30.002Z,6.88
2023-03-29T05:01:59.081Z,24.40
2023-03-29T05:04:29.991Z,7.55
2023-03-29T05:07:07.186Z,8.75
2023-03-29T05:09:35.974Z,10.43
2023-03-29T05:12:05.944Z,12.18
2023-03-29T05:14:47.757Z,10.63
2023-03-29T05:17:16.258Z,5.38
2023-03-29T05:19:45.161Z,3.45
2023-03-29T05:22:15.079Z,3.00
2023-03-29T05:24:43.726Z,2.42
2023-03-29T05:27:19.758Z,3.42
2023-03-29T05:30:02.262Z,2.45
2023-03-29T05:32:42.292Z,2.65
2023-03-29T05:35:12.911Z,2.90
2023-03-29T05:37:41.546Z,3.60
2023-03-29T05:40:10.588Z,2.85
2023-03-29T05:42:59.996Z,2.92
2023-03-29T05:45:30.534Z,2.78
2023-03-29T05:47:59.091Z,6.43
2023-03-29T05:50:27.495Z,3.53
2023-03-29T05:52:58.567Z,1.73
2023-03-29T05:55:26.831Z,1.65
2023-03-29T05:57:55.489Z,1.70
2023-03-29T06:00:32.228Z,1.70
2023-03-29T06:03:26.609Z,2.25
2023-03-29T06:06:02.807Z,1.52
2023-03-29T06:08:34.181Z,1.80
2023-03-29T06:11:16.424Z,1.77
2023-03-29T06:14:14.977Z,1.98
2023-03-29T06:16:49.611Z,1.70
2023-03-29T06:19:19.340Z,1.88
2023-03-29T06:21:47.965Z,1.92
2023-03-29T06:24:21.599Z,2.30
2023-03-29T06:26:56.835Z,2.15
2023-03-29T06:29:25.639Z,1.83
2023-03-29T06:31:56.774Z,2.50
2023-03-29T06:34:44.386Z,3.58
2023-03-29T06:37:33.040Z,2.30
2023-03-29T06:40:18.348Z,2.50
2023-03-29T06:42:47.769Z,2.60
2023-03-29T06:45:36.188Z,2.20
2023-03-29T06:48:10.024Z,2.42
2023-03-29T06:50:38.577Z,2.80
2023-03-29T06:53:17.527Z,3.10
2023-03-29T06:55:54.885Z,2.83
2023-03-29T06:58:41.721Z,2.47
2023-03-29T07:01:29.193Z,2.75
2023-03-29T07:04:08.719Z,3.30
2023-03-29T07:07:04.838Z,2.72
2023-03-29T07:09:36.345Z,3.30
2023-03-29T07:12:37.554Z,3.00
2023-03-29T07:15:06.948Z,3.25
2023-03-29T07:17:54.526Z,3.40
2023-03-29T07:20:23.652Z,2.67
2023-03-29T07:23:04.397Z,2.85
2023-03-29T07:25:32.800Z,2.70
2023-03-29T07:28:01.287Z,3.10
2023-03-29T07:30:32.520Z,2.77
2023-03-29T07:33:18.943Z,2.83
2023-03-29T07:35:53.137Z,2.40
2023-03-29T07:38:23.671Z,2.47
2023-03-29T07:41:07.167Z,2.58
2023-03-29T07:43:38.961Z,2.50
2023-03-29T07:46:10.635Z,2.45
2023-03-29T07:48:40.791Z,2.42
2023-03-29T07:51:11.902Z,3.03
2023-03-29T07:53:50.630Z,2.75
2023-03-29T07:56:51.757Z,2.20
2023-03-29T07:59:34.185Z,2.65
2023-03-29T08:02:12.307Z,2.67
2023-03-29T08:04:54.928Z,2.60
2023-03-29T08:07:32.679Z,2.55
2023-03-29T08:10:21.336Z,3.00
2023-03-29T08:13:09.890Z,2.53
2023-03-29T08:15:59.669Z,1.90
2023-03-29T08:18:34.960Z,2.22
2023-03-29T08:21:05.873Z,2.38
2023-03-29T08:23:34.828Z,2.60
2023-03-29T08:26:39.893Z,2.17
2023-03-29T08:29:09.419Z,2.72
2023-03-29T08:31:41.425Z,1.98
2023-03-29T08:34:10.919Z,2.40
2023-03-29T08:36:43.045Z,2.83
2023-03-29T08:39:28.933Z,2.53
2023-03-29T08:42:34.604Z,2.80
2023-03-29T08:45:08.385Z,2.67
2023-03-29T08:47:56.070Z,2.53
2023-03-29T08:50:37.252Z,3.00
2023-03-29T08:53:37.592Z,5.75
2023-03-29T08:56:27.854Z,2.35
2023-03-29T08:59:32.674Z,2.40
2023-03-29T09:02:05.588Z,2.70
2023-03-29T09:04:37.142Z,1.97
2023-03-29T09:07:28.665Z,2.47
2023-03-29T09:09:58.113Z,2.88
2023-03-29T09:13:08.587Z,3.08
2023-03-29T09:15:37.971Z,2.58
2023-03-29T09:18:34.887Z,2.53
2023-03-29T09:21:12.013Z,2.45
2023-03-29T09:24:14.166Z,2.08
2023-03-29T09:27:42.042Z,2.22
2023-03-29T09:30:42.124Z,2.05
2023-03-29T09:33:20.932Z,1.37
2023-03-29T09:36:12.784Z,2.20
2023-03-29T09:38:44.803Z,2.58
2023-03-29T09:41:48.523Z,2.50
2023-03-29T09:44:30.922Z,2.45
2023-03-29T09:47:27.901Z,2.10
2023-03-29T09:50:09.906Z,2.30
2023-03-29T09:52:45.232Z,2.25
2023-03-29T09:55:27.877Z,2.13
2023-03-29T09:58:19.823Z,2.55
2023-03-29T10:04:30.538Z,2.00
2023-03-29T10:07:11.570Z,2.00
2023-03-29T10:10:07.755Z,1.60
2023-03-29T10:12:37.262Z,2.10
2023-03-29T10:15:29.811Z,1.80
2023-03-29T10:18:18.834Z,2.22
2023-03-29T10:20:48.866Z,2.20
2023-03-29T10:23:19.246Z,1.90
2023-03-29T10:25:47.806Z,2.20
2023-03-29T10:28:20.786Z,1.60
2023-03-29T10:30:58.753Z,2.25
2023-03-29T10:33:33.113Z,2.17
2023-03-29T10:36:04.215Z,2.30
2023-03-29T10:38:48.797Z,2.50
2023-03-29T10:41:18.017Z,2.80
2023-03-29T10:43:51.338Z,2.35
2023-03-29T10:46:31.731Z,2.30
2023-03-29T10:49:06.582Z,2.25
2023-03-29T10:51:35.139Z,2.10
2023-03-29T10:54:04.704Z,21.63
2023-03-29T10:56:45.964Z,3.20
2023-03-29T10:59:37.330Z,2.60
2023-03-29T11:02:36.366Z,4.18
2023-03-29T11:05:06.337Z,2.25
2023-03-29T11:07:52.801Z,2.50
2023-03-29T11:10:55.266Z,6.07
2023-03-29T11:13:23.878Z,7.72
2023-03-29T11:16:06.353Z,3.72
2023-03-29T11:18:52.030Z,7.50
2023-03-29T11:21:27.180Z,6.53
2023-03-29T11:23:55.162Z,17.90
2023-03-29T11:26:48.800Z,12.25
2023-03-29T11:29:40.509Z,2.95
2023-03-29T11:32:30.501Z,3.08
2023-03-29T11:35:13.965Z,3.43
2023-03-29T11:38:02.464Z,2.00
2023-03-29T11:41:18.104Z,3.78
2023-03-29T11:44:26.799Z,2.25
2023-03-29T11:47:05.649Z,2.90
2023-03-29T11:49:59.776Z,2.57
2023-03-29T11:52:37.042Z,3.33
2023-03-29T11:55:19.513Z,2.50
2023-03-29T11:57:57.445Z,2.72
2023-03-29T12:00:33.826Z,2.42
2023-03-29T12:03:13.852Z,2.00
2023-03-29T12:06:22.811Z,1.63
2023-03-29T12:09:01.736Z,1.60
2023-03-29T12:11:49.253Z,1.50
2023-03-29T12:14:38.709Z,2.28
2023-03-29T12:17:15.472Z,2.43
2023-03-29T12:19:49.661Z,3.30
2023-03-29T12:22:18.531Z,2.80
2023-03-29T12:24:50.956Z,3.17
2023-03-29T12:27:47.831Z,2.60
2023-03-29T12:30:53.357Z,2.00
2023-03-29T12:33:40.521Z,2.42
2023-03-29T12:37:07.088Z,1.45
2023-03-29T12:39:50.023Z,1.98
2023-03-29T12:43:03.981Z,2.63
2023-03-29T12:45:56.425Z,1.80
2023-03-29T12:48:27.802Z,2.40
2023-03-29T12:51:02.808Z,1.73
2023-03-29T12:53:44.368Z,1.80
2023-03-29T12:56:21.332Z,1.77
2023-03-29T12:59:06.283Z,1.50
2023-03-29T13:01:41.561Z,1.20
2023-03-29T13:04:20.471Z,1.38
2023-03-29T13:07:05.091Z,1.60
2023-03-29T13:09:54.068Z,1.67
2023-03-29T13:12:33.404Z,1.50
2023-03-29T13:15:06.135Z,2.40
2023-03-29T13:17:44.981Z,1.63
2023-03-29T13:20:22.539Z,1.50
2023-03-29T13:22:56.651Z,1.20
2023-03-29T13:26:04.190Z,1.10
2023-03-29T13:28:45.518Z,1.30
2023-03-29T13:31:36.425Z,2.95
2023-03-29T13:34:24.436Z,2.10
2023-03-29T13:36:52.758Z,1.77
2023-03-29T13:39:32.813Z,1.67
2023-03-29T13:42:37.469Z,1.60
2023-03-29T13:45:20.269Z,1.75
2023-03-29T13:48:02.679Z,2.90
2023-03-29T13:50:37.994Z,2.03
2023-03-29T13:53:20.336Z,1.90
2023-03-29T13:55:51.784Z,1.70
2023-03-29T13:58:38.035Z,1.75
2023-03-29T14:01:32.113Z,4.57
2023-03-29T14:04:00.332Z,2.92
2023-03-29T14:06:37.946Z,2.40
2023-03-29T14:09:09.986Z,1.77
2023-03-29T14:11:38.784Z,2.08
2023-03-29T14:14:08.928Z,1.40
2023-03-29T14:16:39.458Z,2.17
2023-03-29T14:19:28.302Z,1.70
2023-03-29T14:21:58.150Z,2.30
2023-03-29T14:24:38.922Z,1.70
2023-03-29T14:27:12.546Z,2.30
2023-03-29T14:29:40.725Z,1.70
2023-03-29T14:32:13.636Z,2.50
2023-03-29T14:34:42.220Z,2.65
2023-03-29T14:41:57.671Z,2.70
2023-03-29T14:44:29.286Z,3.50
2023-03-29T14:46:57.420Z,1.80
2023-03-29T14:49:26.060Z,3.67
2023-03-29T14:51:55.562Z,2.45
2023-03-29T14:54:28.491Z,2.35
2023-03-29T14:56:56.778Z,3.63
2023-03-29T14:59:39.643Z,3.50
2023-03-29T15:02:29.022Z,3.65
2023-03-29T15:05:05.694Z,2.17
2023-03-29T15:07:35.686Z,2.90
2023-03-29T15:10:06.860Z,1.98
2023-03-29T15:12:36.420Z,2.73
2023-03-29T15:15:04.879Z,2.72
2023-03-29T15:17:50.358Z,2.03
2023-03-29T15:20:23.671Z,2.20
2023-03-29T15:22:57.030Z,2.55
2023-03-29T15:25:38.073Z,3.17
2023-03-29T15:28:06.689Z,8.02
2023-03-29T15:30:39.571Z,5.93
2023-03-29T15:33:25.282Z,4.40
2023-03-29T15:35:54.375Z,5.75
2023-03-29T15:38:27.705Z,8.27
2023-03-29T15:41:06.925Z,6.82
2023-03-29T15:43:35.762Z,29.35
2023-03-29T15:46:04.434Z,7.43
2023-03-29T15:48:34.108Z,4.28
2023-03-29T15:51:06.237Z,3.93
2023-03-29T15:53:36.798Z,5.20
2023-03-29T15:56:07.795Z,8.95
2023-03-29T15:58:36.430Z,7.40
2023-03-29T16:01:34.700Z,6.25
2023-03-29T16:04:05.833Z,5.33
2023-03-29T16:06:35.232Z,6.05
2023-03-29T16:09:04.821Z,3.65
2023-03-29T16:11:33.467Z,3.60
2023-03-29T16:14:01.617Z,4.00
2023-03-29T16:16:30.065Z,3.70
2023-03-29T16:18:57.859Z,6.65
2023-03-29T16:21:27.081Z,3.20
2023-03-29T16:23:55.323Z,3.38
2023-03-29T16:26:27.794Z,6.32
2023-03-29T16:29:01.621Z,3.60
2023-03-29T16:31:34.028Z,4.13
2023-03-29T16:34:03.531Z,4.15
2023-03-29T16:36:35.611Z,4.47
2023-03-29T16:39:06.051Z,6.68
2023-03-29T16:41:34.394Z,4.07
2023-03-29T16:44:02.531Z,5.03
2023-03-29T16:46:31.508Z,5.30
2023-03-29T16:49:02.079Z,3.90
2023-03-29T16:51:31.030Z,4.88
2023-03-29T16:54:01.186Z,3.47
2023-03-29T16:56:30.069Z,3.05
2023-03-29T16:58:58.154Z,3.88
2023-03-29T17:01:30.483Z,4.70
2023-03-29T17:04:09.053Z,4.60
2023-03-29T17:06:39.440Z,3.63
2023-03-29T17:09:10.401Z,4.90
2023-03-29T17:11:42.977Z,3.13
2023-03-29T17:14:11.646Z,4.15
2023-03-29T17:16:40.165Z,7.15
2023-03-29T17:19:08.173Z,5.60
2023-03-29T17:21:36.361Z,6.57
2023-03-29T17:24:04.738Z,4.93
2023-03-29T17:26:35.808Z,5.25
2023-03-29T17:29:06.629Z,9.55
2023-03-29T17:31:36.772Z,6.72
2023-03-29T17:34:04.981Z,3.83
2023-03-29T17:36:34.362Z,6.03
2023-03-29T17:39:03.128Z,15.88
2023-03-29T17:41:31.666Z,5.88
2023-03-29T17:44:00.284Z,4.03
2023-03-29T17:46:29.334Z,4.30
2023-03-29T17:48:59.570Z,4.43
2023-03-29T17:51:28.745Z,3.47
2023-03-29T17:54:21.834Z,3.20
2023-03-29T17:56:50.856Z,7.90
2023-03-29T17:59:19.004Z,6.22
2023-03-29T18:01:47.747Z,4.45
2023-03-29T18:04:16.100Z,7.05
2023-03-29T18:06:48.084Z,5.40
2023-03-29T18:09:18.954Z,10.40
2023-03-29T18:11:47.620Z,10.75
2023-03-29T18:14:15.611Z,13.85
2023-03-29T18:16:55.592Z,8.13
2023-03-29T18:19:30.945Z,15.98
2023-03-29T18:22:11.761Z,14.50
2023-03-29T18:24:44.988Z,9.32
2023-03-29T18:27:16.287Z,8.77
2023-03-29T18:29:45.180Z,8.65
2023-03-29T18:32:16.741Z,9.88
2023-03-29T18:34:47.696Z,8.03
2023-03-29T18:37:19.032Z,6.70
2023-03-29T18:39:48.547Z,7.22
2023-03-29T18:42:17.585Z,5.75
2023-03-29T18:44:46.223Z,6.47
2023-03-29T18:47:19.648Z,6.53
2023-03-29T18:49:49.843Z,6.32
2023-03-29T18:52:27.139Z,6.18
2023-03-29T18:54:56.680Z,6.15
2023-03-29T18:57:25.479Z,5.28
2023-03-29T18:59:54.234Z,5.70
2023-03-29T19:02:26.815Z,5.15
2023-03-29T19:04:55.322Z,5.20
2023-03-29T19:07:24.407Z,5.93
2023-03-29T19:09:53.132Z,5.35
2023-03-29T19:12:22.374Z,6.00
2023-03-29T19:14:53.060Z,6.13
2023-03-29T19:17:24.652Z,4.28
2023-03-29T19:19:53.200Z,3.65
2023-03-29T19:22:22.255Z,5.63
2023-03-29T19:24:51.804Z,5.10
2023-03-29T19:27:20.883Z,5.03
2023-03-29T19:29:50.262Z,4.07
2023-03-29T19:32:22.740Z,4.63
2023-03-29T19:34:59.602Z,4.30
2023-03-29T19:37:28.506Z,4.70
2023-03-29T19:39:59.714Z,4.22
2023-03-29T19:42:28.116Z,3.10
2023-03-29T19:44:56.011Z,3.22
2023-03-29T19:47:24.413Z,4.25
2023-03-29T19:49:52.271Z,4.70
2023-03-29T19:52:47.643Z,3.65
2023-03-29T19:55:15.569Z,3.22
2023-03-29T19:57:44.420Z,5.13
2023-03-29T20:00:14.569Z,5.68
2023-03-29T20:02:42.857Z,5.10
2023-03-29T20:05:10.966Z,5.60
2023-03-29T20:07:39.109Z,5.03
2023-03-29T20:10:07.882Z,5.95
2023-03-29T20:12:36.714Z,5.68
2023-03-29T20:15:05.025Z,4.88
2023-03-29T20:17:35.854Z,4.15
2023-03-29T20:20:09.158Z,8.50
2023-03-29T20:22:38.590Z,4.55
2023-03-29T20:25:06.569Z,4.63
2023-03-29T20:27:35.789Z,3.42
2023-03-29T20:30:04.239Z,3.30
2023-03-29T20:32:32.570Z,3.58
2023-03-29T20:35:00.763Z,5.15
2023-03-29T20:37:29.272Z,6.32
2023-03-29T20:39:57.151Z,7.03
2023-03-29T20:42:29.087Z,7.47
2023-03-29T20:44:56.961Z,5.95
2023-03-29T20:47:27.856Z,5.20
2023-03-29T20:49:55.947Z,5.70
2023-03-29T20:52:25.158Z,14.02
2023-03-29T20:54:52.967Z,12.20
2023-03-29T20:57:21.481Z,5.53
2023-03-29T20:59:49.650Z,3.70
2023-03-29T21:02:21.763Z,4.28
2023-03-29T21:04:52.226Z,4.72
2023-03-29T21:07:22.321Z,4.65
2023-03-29T21:09:50.221Z,3.83
2023-03-29T21:12:19.461Z,3.40
2023-03-29T21:14:47.965Z,3.83
2023-03-29T21:17:16.204Z,3.88
2023-03-29T21:19:44.261Z,8.73
2023-03-29T21:22:14.569Z,12.07
2023-03-29T21:24:42.389Z,4.93
2023-03-29T21:27:10.624Z,3.70
2023-03-29T21:29:38.317Z,3.47
2023-03-29T21:32:06.791Z,3.55
2023-03-29T21:34:34.476Z,3.85
2023-03-29T21:37:03.078Z,14.68
2023-03-29T21:39:31.125Z,4.95
2023-03-29T21:41:59.904Z,3.17
2023-03-29T21:44:28.232Z,7.03
2023-03-29T21:46:56.428Z,25.42
2023-03-29T21:49:24.536Z,7.47
2023-03-29T21:51:53.004Z,5.07
2023-03-29T21:54:20.864Z,3.08
2023-03-29T21:56:49.092Z,3.17
2023-03-29T21:59:16.938Z,7.45
2023-03-29T22:01:45.390Z,8.57
2023-03-29T22:04:19.874Z,3.88
2023-03-29T22:06:54.407Z,3.60
2023-03-29T22:09:27.082Z,3.42
2023-03-29T22:11:55.362Z,5.65
2023-03-29T22:14:23.046Z,3.50
2023-03-29T22:16:51.297Z,2.72
2023-03-29T22:19:19.178Z,2.95
2023-03-29T22:21:48.764Z,8.13
2023-03-29T22:24:16.703Z,4.47
2023-03-29T22:26:52.396Z,3.83
2023-03-29T22:29:20.243Z,3.17
2023-03-29T22:31:48.336Z,3.17
2023-03-29T22:34:17.273Z,2.95
2023-03-29T22:36:45.381Z,3.15
2023-03-29T22:39:13.862Z,3.53
2023-03-29T22:41:42.648Z,3.22
2023-03-29T22:44:10.468Z,3.83
2023-03-29T22:46:38.552Z,3.53
2023-03-29T22:49:06.689Z,3.38
2023-03-29T22:51:34.731Z,3.10
2023-03-29T22:54:02.538Z,3.65
2023-03-29T22:56:30.831Z,2.80
2023-03-29T22:58:58.587Z,2.83
2023-03-29T23:01:26.806Z,2.97
2023-03-29T23:03:55.023Z,3.58
2023-03-29T23:06:23.132Z,3.42
2023-03-29T23:08:50.869Z,2.45
2023-03-29T23:11:18.978Z,4.40
2023-03-29T23:13:49.514Z,3.90
2023-03-29T23:16:17.600Z,4.43
2023-03-29T23:18:45.750Z,3.80
2023-03-29T23:21:13.969Z,3.13
2023-03-29T23:23:41.813Z,3.63
2023-03-29T23:26:10.808Z,3.55
2023-03-29T23:28:38.550Z,3.70
2023-03-29T23:31:20.110Z,3.15
2023-03-29T23:33:48.036Z,3.10
2023-03-29T23:36:18.640Z,3.50
2023-03-29T23:38:47.350Z,3.13
2023-03-29T23:41:18.056Z,3.90
2023-03-29T23:43:47.474Z,3.50
2023-03-29T23:46:19.156Z,3.50
2023-03-29T23:48:49.390Z,3.30
2023-03-29T23:51:19.281Z,3.25
2023-03-29T23:53:48.191Z,3.75
2023-03-29T23:56:16.758Z,3.80
2023-03-29T23:58:44.993Z,4.20
